Time;durP1;ratioP1;P1;durP2;ratioP2;P2;SDS_P1;SDS_P2;PMS_P1;PMS_P2;Temp;Humidity;BMP_temperature;BMP_pressure;BME280_temperature;BME280_humidity;BME280_pressure;Samples;Min_cycle;Max_cycle;Signal;HPM_P1;HPM_P2
2023/03/23 00:01:30;;;;;;;1.25;0.90;;;14.60;99.90;;;;;;4987933;28;20053;-82
2023/03/23 00:03:56;;;;;;;2.75;1.10;;;14.60;99.90;;;;;;4972678;28;20074;-82
2023/03/23 00:06:24;;;;;;;1.80;1.10;;;14.60;99.90;;;;;;4963855;28;20054;-81
2023/03/23 00:08:56;;;;;;;1.70;1.20;;;14.70;99.90;;;;;;4973141;28;20447;-80
2023/03/23 00:11:26;;;;;;;2.95;0.93;;;14.70;99.90;;;;;;4980295;28;20047;-82
2023/03/23 00:13:52;;;;;;;1.73;1.02;;;14.80;99.90;;;;;;4963931;28;20035;-82
2023/03/23 00:16:28;;;;;;;1.65;1.10;;;14.80;99.90;;;;;;4974003;28;20043;-79
2023/03/23 00:18:56;;;;;;;2.83;0.75;;;14.80;99.90;;;;;;4956694;28;20043;-80
2023/03/23 00:21:25;;;;;;;2.15;0.90;;;14.90;99.90;;;;;;4967632;28;20077;-79
2023/03/23 00:23:51;;;;;;;3.58;1.00;;;14.90;99.90;;;;;;4986909;28;20053;-79
2023/03/23 00:26:17;;;;;;;1.45;0.88;;;14.90;99.90;;;;;;4974705;28;20051;-81
2023/03/23 00:28:42;;;;;;;1.98;0.98;;;14.90;99.90;;;;;;4972137;28;20134;-80
2023/03/23 00:31:09;;;;;;;1.90;0.98;;;15.00;99.90;;;;;;4965056;28;20062;-80
2023/03/23 00:33:43;;;;;;;2.15;0.90;;;15.00;99.90;;;;;;4978125;28;20044;-80
2023/03/23 00:36:11;;;;;;;2.50;1.08;;;15.00;99.90;;;;;;4969344;28;20090;-80
2023/03/23 00:38:38;;;;;;;4.65;1.75;;;15.10;99.90;;;;;;4951259;28;20058;-79
2023/03/23 00:41:04;;;;;;;1.80;1.10;;;15.10;99.90;;;;;;4973770;28;20039;-82
2023/03/23 00:43:31;;;;;;;1.33;0.90;;;15.10;99.90;;;;;;4967031;28;20639;-83
2023/03/23 00:46:00;;;;;;;1.63;0.85;;;15.10;99.90;;;;;;4969756;28;20067;-83
2023/03/23 00:48:28;;;;;;;2.95;1.08;;;15.20;99.90;;;;;;4992326;28;20745;-81
2023/03/23 00:50:54;;;;;;;1.52;1.13;;;15.20;99.90;;;;;;4956890;28;20066;-81
2023/03/23 00:53:20;;;;;;;1.27;0.75;;;15.20;99.90;;;;;;4967206;28;20047;-82
2023/03/23 00:55:47;;;;;;;3.20;1.10;;;15.20;99.90;;;;;;4966786;28;20049;-80
2023/03/23 00:58:14;;;;;;;2.03;0.95;;;15.20;99.90;;;;;;4965867;28;20423;-81
2023/03/23 01:00:40;;;;;;;3.90;1.00;;;15.20;99.90;;;;;;4952599;29;20046;-81
2023/03/23 01:03:06;;;;;;;1.45;0.80;;;15.30;99.90;;;;;;4980032;28;20039;-80
2023/03/23 01:05:37;;;;;;;1.20;0.57;;;15.30;99.90;;;;;;4989710;28;20054;-81
2023/03/23 01:08:04;;;;;;;3.25;1.08;;;15.30;99.90;;;;;;4975097;28;20046;-79
2023/03/23 01:10:32;;;;;;;1.60;1.10;;;15.30;99.90;;;;;;4963391;28;20038;-80
2023/03/23 01:13:01;;;;;;;0.70;0.70;;;15.30;99.90;;;;;;4972235;28;20049;-80
2023/03/23 01:15:28;;;;;;;1.48;0.82;;;15.30;99.90;;;;;;4977124;28;20051;-79
2023/03/23 01:17:55;;;;;;;2.17;0.80;;;15.30;99.90;;;;;;4974425;28;20055;-81
2023/03/23 01:20:20;;;;;;;1.73;0.85;;;15.30;99.90;;;;;;4974942;28;20039;-80
2023/03/23 01:22:46;;;;;;;1.40;0.90;;;15.30;99.90;;;;;;4974216;28;20510;-80
2023/03/23 01:25:13;;;;;;;1.10;0.90;;;15.30;99.90;;;;;;4967305;28;20039;-80
2023/03/23 01:27:40;;;;;;;1.23;0.80;;;15.30;99.90;;;;;;4971652;28;20035;-80
2023/03/23 01:30:08;;;;;;;2.97;1.40;;;15.30;99.90;;;;;;4975033;28;20046;-80
2023/03/23 01:32:34;;;;;;;1.73;0.77;;;15.30;99.90;;;;;;4972721;28;20078;-80
2023/03/23 01:35:00;;;;;;;1.85;0.80;;;15.30;99.90;;;;;;4981040;28;20051;-81
2023/03/23 01:37:26;;;;;;;1.27;1.00;;;15.30;99.90;;;;;;4971625;28;20043;-80
2023/03/23 01:39:55;;;;;;;1.02;0.73;;;15.30;99.90;;;;;;4970022;28;20522;-80
2023/03/23 01:42:29;;;;;;;1.52;0.80;;;15.30;99.90;;;;;;4963395;28;20039;-80
2023/03/23 01:44:55;;;;;;;1.95;1.15;;;15.30;99.90;;;;;;4991890;28;20351;-81
2023/03/23 01:47:23;;;;;;;2.78;0.88;;;15.30;99.90;;;;;;4972050;28;20058;-80
2023/03/23 01:49:49;;;;;;;1.88;0.80;;;15.40;99.90;;;;;;4972965;28;20071;-80
2023/03/23 01:52:23;;;;;;;2.85;0.98;;;15.30;99.90;;;;;;4993751;28;20521;-81
2023/03/23 01:54:52;;;;;;;1.42;0.80;;;15.40;99.90;;;;;;4983097;28;20042;-81
2023/03/23 01:57:21;;;;;;;3.30;1.05;;;15.40;99.90;;;;;;4970244;28;20043;-80
2023/03/23 01:59:51;;;;;;;1.42;0.93;;;15.40;99.90;;;;;;4969626;28;20051;-80
2023/03/23 02:02:17;;;;;;;;;;;15.40;99.90;;;;;;4973608;28;20054;-80
2023/03/23 02:04:44;;;;;;;1.20;0.88;;;15.40;99.90;;;;;;4964293;28;19918;-79
2023/03/23 02:07:13;;;;;;;1.42;0.90;;;15.40;99.90;;;;;;4986781;28;20046;-81
2023/03/23 02:09:39;;;;;;;3.05;1.00;;;15.40;99.90;;;;;;4976905;28;20042;-79
2023/03/23 02:12:05;;;;;;;1.35;0.88;;;15.50;99.90;;;;;;4968399;28;20526;-80
2023/03/23 02:14:31;;;;;;;1.15;0.85;;;15.40;99.90;;;;;;4972338;28;20043;-79
2023/03/23 02:17:30;;;;;;;1.58;0.73;;;15.50;99.90;;;;;;4977671;28;20530;-79
2023/03/23 02:20:14;;;;;;;2.28;0.70;;;15.50;99.90;;;;;;4971938;28;20047;-80
2023/03/23 02:22:55;;;;;;;2.17;1.00;;;15.50;99.90;;;;;;4963847;28;20380;-79
2023/03/23 02:25:58;;;;;;;1.55;0.90;;;15.50;99.90;;;;;;4989022;28;20058;-80
2023/03/23 02:28:30;;;;;;;1.30;0.90;;;15.40;99.90;;;;;;4979988;28;20064;-80
2023/03/23 02:31:11;;;;;;;2.08;0.80;;;15.40;99.90;;;;;;4965922;28;20051;-81
2023/03/23 02:33:47;;;;;;;1.55;0.80;;;15.50;99.90;;;;;;4971505;28;20046;-81
2023/03/23 02:39:10;;;;;;;1.23;0.90;;;15.50;99.90;;;;;;5091100;27;20377;-80
2023/03/23 02:41:51;;;;;;;1.83;0.80;;;15.50;99.90;;;;;;5071671;28;20041;-80
2023/03/23 02:44:17;;;;;;;1.10;0.80;;;15.50;99.90;;;;;;5056099;28;20485;-81
2023/03/23 02:46:44;;;;;;;1.67;0.82;;;15.50;99.90;;;;;;5061536;28;20112;-80
2023/03/23 02:49:14;;;;;;;1.63;0.77;;;15.50;99.90;;;;;;5075333;28;20099;-81
2023/03/23 02:51:43;;;;;;;3.03;0.90;;;15.50;99.90;;;;;;5071833;28;20051;-81
2023/03/23 02:54:10;;;;;;;2.53;0.97;;;15.60;99.90;;;;;;5053780;28;20045;-80
2023/03/23 02:56:36;;;;;;;1.20;0.88;;;15.50;99.90;;;;;;5062146;28;20044;-80
2023/03/23 02:59:02;;;;;;;1.73;0.70;;;15.60;99.90;;;;;;5068224;28;20471;-80
2023/03/23 03:01:35;;;;;;;1.67;1.00;;;15.60;99.90;;;;;;5065916;28;20040;-80
2023/03/23 03:04:12;;;;;;;2.55;0.80;;;15.50;99.90;;;;;;5070785;28;20041;-81
2023/03/23 03:07:00;;;;;;;1.00;0.90;;;15.60;99.90;;;;;;5075025;28;20059;-81
2023/03/23 03:09:47;;;;;;;1.60;1.10;;;15.60;99.90;;;;;;5067447;28;20071;-81
2023/03/23 03:12:27;;;;;;;3.40;0.90;;;15.50;99.90;;;;;;5063110;28;20048;-80
2023/03/23 03:15:05;;;;;;;1.17;0.88;;;15.60;99.90;;;;;;5075307;28;20045;-81
2023/03/23 03:17:31;;;;;;;1.25;0.63;;;15.60;99.90;;;;;;5078671;28;20115;-79
2023/03/23 03:20:08;;;;;;;1.25;0.90;;;15.60;99.90;;;;;;5066910;28;20098;-80
2023/03/23 03:22:37;;;;;;;1.10;0.90;;;15.60;99.90;;;;;;5077113;28;20059;-81
2023/03/23 03:25:04;;;;;;;1.75;0.93;;;15.60;99.90;;;;;;5063476;28;20041;-80
2023/03/23 03:27:31;;;;;;;1.85;1.08;;;15.60;99.90;;;;;;5075764;28;20046;-80
2023/03/23 03:30:00;;;;;;;3.13;1.45;;;15.70;99.90;;;;;;5074088;28;20137;-82
2023/03/23 03:32:36;;;;;;;1.05;0.90;;;15.70;99.90;;;;;;5053194;28;20497;-81
2023/03/23 03:35:03;;;;;;;2.05;1.05;;;15.70;99.90;;;;;;5047388;28;20049;-81
2023/03/23 03:37:36;;;;;;;3.10;0.88;;;15.70;99.90;;;;;;5073774;28;20119;-81
2023/03/23 03:40:07;;;;;;;1.00;0.75;;;15.70;99.90;;;;;;5069180;28;20037;-81
2023/03/23 03:42:33;;;;;;;1.30;0.85;;;15.70;99.90;;;;;;5064849;28;20064;-81
2023/03/23 03:44:59;;;;;;;1.23;1.00;;;15.70;99.90;;;;;;5058519;28;20037;-80
2023/03/23 03:47:24;;;;;;;1.27;0.88;;;15.70;99.90;;;;;;5069018;28;20055;-80
2023/03/23 03:49:50;;;;;;;2.75;0.80;;;15.70;99.90;;;;;;5061805;28;20501;-80
2023/03/23 03:52:16;;;;;;;1.92;0.85;;;15.70;99.90;;;;;;5056959;28;20112;-81
2023/03/23 03:54:41;;;;;;;2.40;0.90;;;15.70;99.90;;;;;;5050263;28;20066;-81
2023/03/23 03:57:07;;;;;;;1.17;0.70;;;15.70;99.90;;;;;;5050040;28;20037;-81
2023/03/23 03:59:34;;;;;;;1.02;0.70;;;15.60;99.90;;;;;;5049729;28;20040;-80
2023/03/23 04:01:59;;;;;;;1.20;0.90;;;15.70;99.90;;;;;;5062314;28;20065;-81
2023/03/23 04:04:25;;;;;;;2.45;0.95;;;15.70;99.90;;;;;;5058262;28;20536;-82
2023/03/23 04:06:51;;;;;;;1.23;0.70;;;15.70;99.90;;;;;;5048695;28;20045;-81
2023/03/23 04:09:16;;;;;;;1.88;0.82;;;15.70;99.90;;;;;;5048025;28;20044;-81
2023/03/23 04:11:42;;;;;;;0.98;0.80;;;15.70;99.90;;;;;;5052567;28;20041;-81
2023/03/23 04:14:08;;;;;;;5.15;0.75;;;15.70;99.90;;;;;;5046470;28;20127;-81
2023/03/23 04:16:34;;;;;;;1.35;1.25;;;15.70;99.90;;;;;;5049737;28;20075;-81
2023/03/23 04:19:00;;;;;;;2.58;0.95;;;15.70;99.90;;;;;;5057873;28;20525;-80
2023/03/23 04:21:28;;;;;;;1.38;0.70;;;15.70;99.90;;;;;;5049660;28;20116;-81
2023/03/23 04:23:58;;;;;;;3.83;1.08;;;15.70;99.90;;;;;;5041866;28;20492;-80
2023/03/23 04:26:26;;;;;;;;;;;15.70;99.90;;;;;;5055451;28;20045;-80
2023/03/23 04:28:51;;;;;;;2.13;1.05;;;15.70;99.90;;;;;;5039118;28;19924;-80
2023/03/23 04:31:17;;;;;;;2.20;1.25;;;15.70;99.90;;;;;;5051068;28;20046;-81
2023/03/23 04:33:43;;;;;;;2.08;1.10;;;15.80;99.90;;;;;;5051927;28;20048;-81
2023/03/23 04:36:09;;;;;;;1.55;1.00;;;15.80;99.90;;;;;;5035964;28;20104;-81
2023/03/23 04:38:34;;;;;;;1.42;0.95;;;15.80;99.90;;;;;;5044681;28;20045;-81
2023/03/23 04:41:01;;;;;;;1.13;0.80;;;15.80;99.90;;;;;;5048240;28;20137;-80
2023/03/23 04:43:28;;;;;;;2.83;1.38;;;15.70;99.90;;;;;;5043292;28;20047;-81
2023/03/23 04:45:58;;;;;;;1.58;1.08;;;15.80;99.90;;;;;;5047879;28;20045;-81
2023/03/23 04:48:33;;;;;;;1.05;0.95;;;15.80;99.90;;;;;;5044741;28;20353;-81
2023/03/23 04:51:02;;;;;;;1.55;1.00;;;15.80;99.90;;;;;;5057421;28;20057;-81
2023/03/23 04:53:29;;;;;;;2.50;1.15;;;15.80;99.90;;;;;;5066042;28;20064;-81
2023/03/23 04:55:54;;;;;;;1.63;0.90;;;15.80;99.90;;;;;;5051252;28;20502;-81
2023/03/23 04:58:20;;;;;;;1.35;0.98;;;15.80;99.90;;;;;;5060427;28;20081;-81
2023/03/23 05:00:49;;;;;;;0.82;0.75;;;15.80;99.90;;;;;;5053561;28;20075;-81
2023/03/23 05:03:19;;;;;;;4.32;1.10;;;15.80;99.90;;;;;;5052517;28;20330;-81
2023/03/23 05:05:51;;;;;;;4.07;1.92;;;15.80;99.90;;;;;;5065678;28;20036;-82
2023/03/23 05:08:22;;;;;;;1.65;1.23;;;15.80;99.90;;;;;;5055346;28;20052;-82
2023/03/23 05:10:56;;;;;;;2.00;1.10;;;15.70;99.90;;;;;;5038735;28;20049;-81
2023/03/23 05:13:22;;;;;;;3.03;1.13;;;15.70;99.90;;;;;;5064006;28;20041;-81
2023/03/23 05:15:48;;;;;;;3.88;1.38;;;15.70;99.90;;;;;;5053595;28;20076;-81
2023/03/23 05:18:14;;;;;;;2.40;1.10;;;15.70;99.90;;;;;;5051766;28;20069;-83
2023/03/23 05:20:41;;;;;;;1.52;0.90;;;15.70;99.90;;;;;;5038788;28;20120;-81
2023/03/23 05:23:09;;;;;;;2.40;1.33;;;15.70;99.90;;;;;;5052294;28;20041;-82
2023/03/23 05:25:36;;;;;;;2.95;1.15;;;15.70;99.90;;;;;;5045072;28;20041;-81
2023/03/23 05:28:02;;;;;;;1.95;1.30;;;15.70;99.90;;;;;;5035319;28;20037;-81
2023/03/23 05:30:29;;;;;;;3.58;1.23;;;15.70;99.90;;;;;;5058750;28;20108;-82
2023/03/23 05:32:55;;;;;;;1.75;1.10;;;15.60;99.90;;;;;;5045734;28;20049;-81
2023/03/23 05:35:22;;;;;;;2.75;0.98;;;15.60;99.90;;;;;;5059554;28;20130;-81
2023/03/23 05:37:48;;;;;;;3.28;1.23;;;15.60;99.90;;;;;;5055773;28;20405;-80
2023/03/23 05:40:14;;;;;;;1.55;1.00;;;15.60;99.90;;;;;;5052463;28;20045;-80
2023/03/23 05:42:45;;;;;;;2.70;1.30;;;15.60;99.90;;;;;;5042893;28;20037;-81
2023/03/23 05:45:11;;;;;;;2.55;1.05;;;15.60;99.90;;;;;;5058547;28;20101;-81
2023/03/23 05:47:41;;;;;;;1.60;1.25;;;15.60;99.90;;;;;;5057137;28;20115;-80
2023/03/23 05:50:12;;;;;;;1.48;1.20;;;15.50;99.90;;;;;;5052542;28;20109;-81
2023/03/23 05:52:38;;;;;;;3.78;1.65;;;15.50;99.90;;;;;;5066572;28;20072;-82
2023/03/23 05:55:05;;;;;;;2.50;1.20;;;15.50;99.90;;;;;;5035644;28;20077;-81
2023/03/23 05:57:32;;;;;;;1.58;1.20;;;15.50;99.90;;;;;;5037806;28;20060;-82
2023/03/23 05:59:58;;;;;;;3.30;1.30;;;15.50;99.90;;;;;;5052747;28;20097;-81
2023/03/23 06:02:24;;;;;;;2.45;1.70;;;15.50;99.90;;;;;;5056260;28;20048;-81
2023/03/23 06:04:57;;;;;;;3.60;2.08;;;15.50;99.90;;;;;;5050179;28;20096;-81
2023/03/23 06:07:24;;;;;;;4.50;2.10;;;15.50;99.90;;;;;;5051638;28;20045;-80
2023/03/23 06:09:50;;;;;;;4.97;3.53;;;15.50;99.90;;;;;;5052382;28;20516;-81
2023/03/23 06:12:19;;;;;;;4.28;2.70;;;15.50;99.90;;;;;;5052285;28;20044;-81
2023/03/23 06:14:49;;;;;;;6.18;3.53;;;15.50;99.90;;;;;;5041074;28;20048;-81
2023/03/23 06:17:17;;;;;;;3.65;1.33;;;15.50;99.90;;;;;;5041808;28;20044;-80
2023/03/23 06:19:43;;;;;;;3.38;1.70;;;15.50;99.90;;;;;;5047030;28;20103;-80
2023/03/23 06:22:10;;;;;;;2.33;1.20;;;15.50;99.90;;;;;;5047251;28;20040;-80
2023/03/23 06:24:36;;;;;;;2.28;1.33;;;15.50;99.90;;;;;;5052964;28;20096;-81
2023/03/23 06:27:01;;;;;;;2.38;1.50;;;15.40;99.90;;;;;;5054054;28;20099;-81
2023/03/23 06:29:28;;;;;;;2.28;1.40;;;15.40;99.90;;;;;;5029389;28;20045;-80
2023/03/23 06:32:00;;;;;;;3.58;1.80;;;15.40;99.90;;;;;;5051331;28;20128;-81
2023/03/23 06:34:26;;;;;;;4.25;1.88;;;15.40;99.90;;;;;;5059418;28;20064;-81
2023/03/23 06:36:52;;;;;;;2.92;1.70;;;15.40;99.90;;;;;;5032958;28;20053;-81
2023/03/23 06:39:17;;;;;;;2.00;1.45;;;15.40;99.90;;;;;;5042498;28;20088;-81
2023/03/23 06:41:43;;;;;;;4.28;1.55;;;15.40;99.90;;;;;;5055240;28;20404;-81
2023/03/23 06:44:13;;;;;;;5.00;1.92;;;15.40;99.90;;;;;;5030837;28;20044;-81
2023/03/23 06:46:39;;;;;;;5.90;2.97;;;15.40;99.90;;;;;;5044972;28;20045;-81
2023/03/23 06:49:04;;;;;;;5.30;2.50;;;15.40;99.90;;;;;;5040368;28;20045;-80
2023/03/23 06:51:30;;;;;;;2.80;1.30;;;15.40;99.90;;;;;;5052299;28;20048;-81
2023/03/23 06:53:57;;;;;;;3.60;2.10;;;15.40;99.90;;;;;;5041352;28;20084;-82
2023/03/23 06:56:23;;;;;;;2.83;1.40;;;15.40;99.90;;;;;;5055398;28;20080;-81
2023/03/23 06:58:49;;;;;;;2.13;1.50;;;15.40;99.90;;;;;;5048056;28;20037;-81
2023/03/23 07:01:15;;;;;;;2.05;1.50;;;15.40;99.90;;;;;;5040982;28;20055;-81
2023/03/23 07:03:41;;;;;;;3.53;1.30;;;15.40;99.90;;;;;;5042481;28;20093;-81
2023/03/23 07:06:08;;;;;;;1.75;1.42;;;15.40;99.90;;;;;;5050219;28;20473;-81
2023/03/23 07:08:34;;;;;;;3.33;1.40;;;15.40;99.90;;;;;;5050732;28;20373;-81
2023/03/23 07:10:59;;;;;;;2.10;1.40;;;15.40;99.90;;;;;;5047465;28;20055;-81
2023/03/23 07:13:26;;;;;;;3.45;1.38;;;15.40;99.90;;;;;;5041961;28;20504;-81
2023/03/23 07:15:52;;;;;;;3.60;1.40;;;15.40;99.90;;;;;;5037745;28;20433;-80
2023/03/23 07:18:18;;;;;;;5.53;1.20;;;15.40;99.90;;;;;;5045713;28;20056;-81
2023/03/23 07:20:48;;;;;;;2.78;1.35;;;15.40;99.90;;;;;;5049964;28;20056;-81
2023/03/23 07:23:14;;;;;;;1.98;1.30;;;15.40;99.90;;;;;;5038356;28;20041;-82
2023/03/23 07:25:40;;;;;;;4.90;1.52;;;15.40;99.90;;;;;;5044192;28;20118;-81
2023/03/23 07:28:06;;;;;;;3.97;1.60;;;15.50;99.90;;;;;;5051296;28;20041;-82
2023/03/23 07:30:32;;;;;;;5.32;1.60;;;15.50;99.90;;;;;;5053988;28;20075;-81
2023/03/23 07:32:58;;;;;;;2.13;1.40;;;15.50;99.90;;;;;;5050742;28;20073;-81
2023/03/23 07:35:25;;;;;;;2.50;1.30;;;15.50;99.90;;;;;;5033508;28;20049;-81
2023/03/23 07:37:51;;;;;;;2.05;1.17;;;15.60;99.90;;;;;;5045613;28;20048;-81
2023/03/23 07:40:18;;;;;;;2.50;1.60;;;15.50;99.90;;;;;;5044935;28;20048;-81
2023/03/23 07:42:53;;;;;;;4.55;1.65;;;15.60;99.90;;;;;;5046358;28;20033;-81
2023/03/23 07:45:18;;;;;;;4.63;1.67;;;15.60;99.90;;;;;;5054128;28;20051;-81
2023/03/23 07:47:44;;;;;;;2.60;1.70;;;15.60;99.90;;;;;;5052641;28;20033;-80
2023/03/23 07:50:11;;;;;;;2.28;1.30;;;15.60;99.90;;;;;;5044493;28;20049;-81
2023/03/23 07:52:38;;;;;;;2.17;1.35;;;15.60;99.90;;;;;;5056587;28;20119;-80
2023/03/23 07:55:05;;;;;;;4.10;1.45;;;15.50;99.90;;;;;;5049696;28;20156;-81
2023/03/23 07:57:32;;;;;;;4.15;1.50;;;15.50;99.90;;;;;;5052579;28;20393;-80
2023/03/23 07:59:59;;;;;;;2.90;1.60;;;15.50;99.90;;;;;;5037753;28;20056;-81
2023/03/23 08:02:26;;;;;;;6.60;1.92;;;15.50;99.90;;;;;;5041460;28;20045;-81
2023/03/23 08:04:53;;;;;;;2.75;1.60;;;15.60;99.90;;;;;;5036808;28;20049;-81
2023/03/23 08:07:19;;;;;;;5.03;1.50;;;15.60;99.90;;;;;;5052587;28;20087;-81
2023/03/23 08:09:47;;;;;;;4.22;1.60;;;15.60;99.90;;;;;;5052948;28;20474;-80
2023/03/23 08:12:13;;;;;;;2.15;1.27;;;15.60;99.90;;;;;;5032820;28;20056;-81
2023/03/23 08:14:39;;;;;;;1.95;1.17;;;15.60;99.90;;;;;;5043544;28;20033;-81
2023/03/23 08:17:05;;;;;;;5.10;1.63;;;15.60;99.90;;;;;;5038024;28;20487;-81
2023/03/23 08:19:36;;;;;;;2.00;1.33;;;15.70;99.90;;;;;;5050752;28;20044;-81
2023/03/23 08:22:05;;;;;;;2.08;1.23;;;15.70;99.90;;;;;;5041640;28;20034;-81
2023/03/23 08:24:35;;;;;;;3.22;1.90;;;15.80;99.90;;;;;;5044169;28;20384;-81
2023/03/23 08:27:01;;;;;;;;;;;15.80;99.90;;;;;;5040857;28;20052;-81
2023/03/23 08:29:27;;;;;;;3.22;1.48;;;15.80;99.90;;;;;;5036195;28;19917;-81
2023/03/23 08:31:53;;;;;;;1.80;1.50;;;15.80;99.90;;;;;;5053449;28;20044;-82
2023/03/23 08:34:19;;;;;;;3.20;1.50;;;15.80;99.90;;;;;;5053337;28;20055;-81
2023/03/23 08:36:46;;;;;;;5.57;1.40;;;15.80;99.90;;;;;;5045673;28;20064;-82
2023/03/23 08:39:14;;;;;;;2.45;1.50;;;15.80;99.90;;;;;;5039574;28;20101;-81
2023/03/23 08:41:40;;;;;;;6.22;1.67;;;15.90;99.90;;;;;;5051694;28;20047;-81
2023/03/23 08:44:07;;;;;;;2.90;1.50;;;15.90;99.90;;;;;;5050117;28;20064;-81
2023/03/23 08:46:33;;;;;;;2.28;1.40;;;15.90;99.90;;;;;;5038828;28;20038;-81
2023/03/23 08:48:58;;;;;;;4.22;1.88;;;15.90;99.90;;;;;;5047381;28;20053;-81
2023/03/23 08:51:25;;;;;;;2.30;1.05;;;16.00;99.90;;;;;;5043881;28;20045;-81
2023/03/23 08:53:50;;;;;;;4.65;1.50;;;16.00;99.90;;;;;;5031474;28;20045;-81
2023/03/23 08:56:16;;;;;;;2.63;1.15;;;16.00;99.90;;;;;;5050395;28;20049;-81
2023/03/23 08:58:42;;;;;;;5.22;1.92;;;16.10;99.90;;;;;;5047746;28;20072;-81
2023/03/23 09:01:10;;;;;;;3.53;1.63;;;16.10;99.90;;;;;;5036819;28;20041;-81
2023/03/23 09:03:36;;;;;;;1.55;1.30;;;16.10;99.90;;;;;;5033879;28;20060;-80
2023/03/23 09:06:05;;;;;;;2.25;1.25;;;16.20;99.90;;;;;;5044808;28;20049;-80
2023/03/23 09:08:31;;;;;;;2.72;1.30;;;16.20;99.90;;;;;;5048565;28;20041;-81
2023/03/23 09:11:04;;;;;;;1.60;1.13;;;16.20;99.90;;;;;;5030051;28;20389;-81
2023/03/23 09:13:30;;;;;;;2.55;1.10;;;16.30;99.90;;;;;;5038352;28;20051;-81
2023/03/23 09:15:57;;;;;;;3.42;1.10;;;16.30;99.90;;;;;;5030611;28;20048;-81
2023/03/23 09:18:23;;;;;;;1.83;1.30;;;16.30;99.90;;;;;;5048185;28;20041;-81
2023/03/23 09:20:54;;;;;;;3.13;1.23;;;16.30;99.90;;;;;;5047412;28;20127;-82
2023/03/23 09:23:20;;;;;;;4.65;1.20;;;16.40;99.90;;;;;;5030463;28;20386;-81
2023/03/23 09:25:47;;;;;;;5.88;2.13;;;16.40;99.90;;;;;;5038873;28;20118;-81
2023/03/23 09:28:13;;;;;;;3.55;1.52;;;16.50;99.90;;;;;;5031923;28;20052;-81
2023/03/23 09:30:40;;;;;;;1.80;0.95;;;16.50;99.90;;;;;;5045329;28;20051;-81
2023/03/23 09:33:07;;;;;;;1.58;1.02;;;16.60;99.90;;;;;;5051237;28;20097;-81
2023/03/23 09:35:35;;;;;;;4.10;1.15;;;16.60;99.90;;;;;;5047906;28;20080;-81
2023/03/23 09:38:02;;;;;;;1.50;1.13;;;16.60;99.90;;;;;;5033682;28;20129;-81
2023/03/23 09:40:50;;;;;;;1.27;0.82;;;16.70;99.90;;;;;;5040466;28;20080;-81
2023/03/23 09:43:48;;;;;;;1.33;1.00;;;16.70;99.90;;;;;;5048627;28;20117;-82
2023/03/23 09:46:32;;;;;;;1.10;0.90;;;16.80;99.90;;;;;;5034711;28;20067;-81
2023/03/23 09:49:02;;;;;;;3.60;1.10;;;16.90;99.90;;;;;;5031901;28;20045;-81
2023/03/23 09:51:49;;;;;;;2.42;1.20;;;16.90;99.90;;;;;;5042026;28;20073;-81
2023/03/23 09:54:34;;;;;;;2.35;1.00;;;17.00;99.90;;;;;;5051193;28;20049;-81
2023/03/23 09:57:00;;;;;;;2.42;0.90;;;17.00;99.90;;;;;;5048193;28;20045;-82
2023/03/23 09:59:42;;;;;;;4.55;0.70;;;17.10;99.90;;;;;;5032844;28;20552;-81
2023/03/23 10:02:17;;;;;;;2.47;1.40;;;17.20;99.90;;;;;;5047669;28;20072;-81
2023/03/23 10:04:49;;;;;;;1.35;0.95;;;17.20;99.90;;;;;;5030903;28;20515;-82
2023/03/23 10:07:19;;;;;;;2.15;1.00;;;17.30;99.90;;;;;;5048898;28;20099;-82
2023/03/23 10:09:47;;;;;;;2.45;0.98;;;17.40;99.90;;;;;;5035260;28;20047;-81
2023/03/23 10:12:14;;;;;;;1.63;0.90;;;17.40;99.90;;;;;;5026097;28;20042;-81
2023/03/23 10:14:55;;;;;;;4.53;1.23;;;17.60;99.90;;;;;;5048167;28;20484;-82
2023/03/23 10:17:46;;;;;;;2.65;1.08;;;17.60;99.90;;;;;;5048362;28;20045;-81
2023/03/23 10:20:28;;;;;;;1.40;0.90;;;17.60;99.90;;;;;;5053238;28;20044;-81
2023/03/23 10:23:17;;;;;;;1.95;1.10;;;17.70;99.90;;;;;;5036783;28;20064;-82
2023/03/23 10:25:54;;;;;;;1.80;1.02;;;17.80;99.90;;;;;;5054257;28;20112;-81
2023/03/23 10:28:24;;;;;;;1.23;0.85;;;17.90;99.90;;;;;;5057106;28;20049;-81
2023/03/23 10:30:55;;;;;;;4.22;1.10;;;18.00;99.90;;;;;;5046996;28;20060;-81
2023/03/23 10:33:44;;;;;;;0.93;0.80;;;18.20;99.90;;;;;;5045260;28;20048;-81
2023/03/23 10:36:30;;;;;;;1.43;0.83;;;18.30;99.90;;;;;;5047608;28;20524;-81
2023/03/23 10:39:16;;;;;;;1.73;1.05;;;18.40;99.90;;;;;;5044626;28;20071;-81
2023/03/23 10:41:42;;;;;;;2.17;1.20;;;18.50;99.90;;;;;;5045888;28;20068;-82
2023/03/23 10:44:19;;;;;;;1.83;1.08;;;18.60;99.90;;;;;;5039820;28;20502;-82
2023/03/23 10:47:06;;;;;;;1.80;0.90;;;18.70;99.90;;;;;;5033200;28;20048;-82
2023/03/23 10:49:47;;;;;;;2.42;1.25;;;18.70;99.90;;;;;;5046723;28;20044;-82
2023/03/23 10:52:37;;;;;;;2.47;1.10;;;18.80;99.90;;;;;;5049601;28;20045;-82
2023/03/23 10:55:06;;;;;;;3.10;1.17;;;18.80;99.90;;;;;;5050807;28;20041;-82
2023/03/23 10:57:35;;;;;;;1.02;0.90;;;18.80;99.90;;;;;;5032087;28;20493;-82
2023/03/23 11:00:08;;;;;;;3.25;1.00;;;19.00;99.90;;;;;;5042755;28;20048;-82
2023/03/23 11:02:43;;;;;;;2.95;1.10;;;19.10;99.90;;;;;;5037887;28;20041;-82
2023/03/23 11:05:19;;;;;;;4.82;1.10;;;19.20;99.90;;;;;;5057871;28;20477;-82
2023/03/23 11:07:59;;;;;;;2.80;1.17;;;19.30;99.90;;;;;;5051165;28;20052;-82
2023/03/23 11:10:36;;;;;;;4.63;1.00;;;19.30;99.90;;;;;;5054240;28;20054;-80
2023/03/23 11:13:04;;;;;;;1.10;0.80;;;19.30;99.90;;;;;;5042810;28;20037;-81
2023/03/23 11:15:34;;;;;;;1.10;0.90;;;19.30;99.90;;;;;;5041355;28;20049;-82
2023/03/23 11:18:01;;;;;;;;;;;19.30;99.90;;;;;;5040002;28;20040;-83
2023/03/23 11:20:29;;;;;;;2.25;1.00;;;19.40;99.90;;;;;;5049039;28;19917;-82
2023/03/23 11:22:55;;;;;;;5.93;1.80;;;19.40;99.90;;;;;;5047972;28;20076;-82
2023/03/23 11:25:22;;;;;;;3.25;1.02;;;19.50;99.90;;;;;;5064094;28;20041;-82
2023/03/23 11:27:49;;;;;;;2.85;1.20;;;19.50;99.90;;;;;;5058990;28;20037;-83
2023/03/23 11:30:23;;;;;;;1.63;1.00;;;19.60;99.90;;;;;;5038614;28;20084;-82
2023/03/23 11:32:50;;;;;;;3.97;1.20;;;19.60;99.90;;;;;;5049043;28;20067;-82
2023/03/23 11:35:27;;;;;;;2.85;1.20;;;19.60;99.90;;;;;;5048849;28;20049;-82
2023/03/23 11:37:56;;;;;;;2.33;1.02;;;19.60;99.90;;;;;;5044330;28;20132;-81
2023/03/23 11:40:27;;;;;;;4.63;1.25;;;19.60;99.90;;;;;;5037009;28;20052;-82
2023/03/23 11:42:53;;;;;;;2.45;1.00;;;19.60;99.90;;;;;;5047911;28;20041;-82
2023/03/23 11:45:19;;;;;;;1.50;0.98;;;19.70;99.90;;;;;;5051434;28;20051;-82
2023/03/23 11:48:13;;;;;;;1.10;1.00;;;19.70;99.90;;;;;;5058698;28;20037;-83
2023/03/23 11:50:52;;;;;;;1.50;1.13;;;19.70;99.90;;;;;;5059727;28;20049;-82
2023/03/23 11:53:39;;;;;;;2.75;1.20;;;19.60;99.90;;;;;;5068062;28;20037;-82
2023/03/23 11:56:16;;;;;;;1.48;1.00;;;19.60;99.90;;;;;;5052572;28;20060;-82
2023/03/23 11:58:42;;;;;;;2.38;0.82;;;19.40;99.90;;;;;;5064832;28;20052;-82
2023/03/23 12:01:34;;;;;;;1.52;1.20;;;19.40;99.90;;;;;;5032469;28;20489;-82
2023/03/23 12:04:43;;;;;;;3.08;0.82;;;19.30;99.90;;;;;;5056741;28;20037;-82
2023/03/23 12:07:23;;;;;;;1.98;1.33;;;19.40;99.90;;;;;;5037271;28;20042;-82
2023/03/23 12:10:08;;;;;;;2.10;1.02;;;19.30;99.90;;;;;;5056332;28;20099;-81
2023/03/23 12:12:46;;;;;;;1.70;0.90;;;19.40;99.90;;;;;;5040886;28;20128;-81
2023/03/23 12:15:17;;;;;;;1.67;1.17;;;19.50;99.90;;;;;;5059645;28;20120;-82
2023/03/23 12:17:46;;;;;;;3.08;1.40;;;19.50;99.90;;;;;;5037763;28;20037;-82
2023/03/23 12:20:22;;;;;;;4.82;1.27;;;19.50;99.90;;;;;;5052530;28;20097;-82
2023/03/23 12:23:09;;;;;;;1.80;1.10;;;19.50;99.90;;;;;;5048935;28;20119;-82
2023/03/23 12:26:02;;;;;;;2.10;1.02;;;19.50;99.90;;;;;;5043592;28;20429;-83
2023/03/23 12:28:36;;;;;;;1.85;1.00;;;19.50;99.90;;;;;;5059797;28;20454;-82
2023/03/23 12:31:24;;;;;;;1.25;0.98;;;19.40;99.90;;;;;;5039036;28;20067;-82
2023/03/23 12:34:05;;;;;;;1.50;0.90;;;19.40;99.90;;;;;;5042505;28;20119;-82
2023/03/23 12:36:43;;;;;;;2.17;0.90;;;19.20;99.90;;;;;;5053654;28;20045;-81
2023/03/23 12:39:28;;;;;;;1.63;1.13;;;19.10;99.90;;;;;;5057466;28;20095;-80
2023/03/23 12:42:02;;;;;;;1.92;1.08;;;19.10;99.90;;;;;;5047210;28;20029;-80
2023/03/23 12:44:41;;;;;;;1.40;0.80;;;19.00;99.90;;;;;;5060923;28;20044;-80
2023/03/23 12:47:37;;;;;;;3.08;1.20;;;19.00;99.90;;;;;;5058805;28;20041;-80
2023/03/23 12:50:14;;;;;;;6.45;1.23;;;18.90;99.90;;;;;;5073412;28;20033;-80
2023/03/23 12:53:05;;;;;;;2.08;0.98;;;18.80;99.90;;;;;;5068482;28;20056;-80
2023/03/23 12:55:39;;;;;;;3.67;1.30;;;18.80;99.90;;;;;;5055503;28;20049;-80
2023/03/23 12:58:17;;;;;;;1.63;1.08;;;18.70;99.90;;;;;;5038401;28;20129;-80
2023/03/23 13:01:25;;;;;;;2.75;1.02;;;18.70;99.90;;;;;;5055873;28;20505;-80
2023/03/23 13:03:57;;;;;;;2.75;0.90;;;18.60;99.90;;;;;;5013828;28;20088;-80
2023/03/23 13:06:27;;;;;;;1.60;1.10;;;18.60;99.90;;;;;;5038321;28;20045;-80
2023/03/23 13:09:02;;;;;;;3.58;0.98;;;18.60;99.90;;;;;;5045749;28;20127;-81